This is the latest recevied weather packets stored in our database for station/object IN3XSV. If no packets are shown the sender has not sent any weather packets the latest 10 day(s).
| Time | Temp. | Humidity | Pressure | Rain* | Wind** | Luminosity | Snow |
|---|---|---|---|---|---|---|---|
| 1778157816 | 13.33° C | 78% | 1006.6 hPa | 0.51 mm | - | - | - |
| 1778157516 | 13.33° C | 78% | 1006.6 hPa | 0.51 mm | - | - | - |
| 1778157216 | 13.33° C | 77% | 1006.7 hPa | 66.8 mm | - | - | - |
| 1778156916 | 12.78° C | 77% | 1006.6 hPa | 126.24 mm | - | - | - |
| 1778156616 | 12.78° C | 76% | 1006.7 hPa | 126.75 mm | - | - | - |
| 1778156316 | 13.33° C | 75% | 1006.7 hPa | 126.75 mm | - | - | - |
| 1778156016 | 13.33° C | 72% | 1006.7 hPa | 126.75 mm | - | - | - |
| 1778155716 | 13.33° C | 71% | 1006.6 hPa | 126.75 mm | - | - | - |
| 1778155416 | 13.33° C | 70% | 1006.7 hPa | 126.75 mm | - | - | - |
| 1778155116 | 13.89° C | 70% | 1006.7 hPa | 126.75 mm | - | - | - |
| 1778154816 | 14.44° C | 70% | 1006.6 hPa | 126.75 mm | - | - | - |
| 1778154516 | 14.44° C | 69% | 1006.4 hPa | 126.75 mm | - | - | - |
| 1778154216 | 14.44° C | 69% | 1006.3 hPa | 126.24 mm | - | - | - |
| 1778153916 | 15° C | 69% | 1006.3 hPa | 81.28 mm | - | - | - |
| 1778153617 | 15.56° C | 66% | 1006.1 hPa | 40.39 mm | - | - | - |
| 1778153316 | 16.67° C | 62% | 1005.9 hPa | 0.51 mm | - | - | - |
| 1778153122 | 17.78° C | 58% | 1005.7 hPa | 0 mm | - | - | - |
| 1778153016 | 17.78° C | 58% | 1005.7 hPa | 0 mm | - | - | - |
| 1778152716 | 18.33° C | 57% | 1005.6 hPa | 0 mm | - | - | - |
| 1778152416 | 18.33° C | 57% | 1005.6 hPa | 0 mm | - | - | - |
| 1778152116 | 18.33° C | 55% | 1005.7 hPa | 0 mm | - | - | - |
| 1778151816 | 18.33° C | 55% | 1005.7 hPa | 0 mm | - | - | - |
| 1778151516 | 18.89° C | 56% | 1005.7 hPa | 0 mm | - | - | - |
| 1778151216 | 18.89° C | 57% | 1005.6 hPa | 0 mm | - | - | - |
| 1778150916 | 18.33° C | 56% | 1005.6 hPa | 0 mm | - | - | - |
* Rain latest hour (hover to see other rain measurements)
** Current wind speed in m/s (hover to see current wind gust speed)